Philadelphia International Airport
KPHL : now visible

Airfield :











YOU CAN JOIN US ON...

 
LOGIN :

Register | Disclaimer

   EN    FR    IT 

 









Legend :    VFR   Marginal VFR   IFR   Intensive IFR   Very Intensive IFR
Visi :
Ceiling :
>= 8 km
>= 3000ft
5 to 8 km
1000 to 3000 ft
1500m to 5 km
500 to 1000 ft
800 to 1500m
200 to 500 ft
< 800m
< 200 ft
Symbols :   Thunderstorms  Fog  Heavy snow  Heavy precipitations  Wind > 20 kt






- Airport Elevation : 36 ft
- IATA code : PHL


KPHL - Philadelphia International

CURRENT METAR :
  • 090054Z 19005KT 10SM SCT180 BKN250 28/20 A2996 RMK AO2 SLP144 T02830200

EXPIRED METARs :
  • 082354Z 19010KT 10SM FEW045 SCT180 BKN250 29/20 A2994 RMK AO2 SLP139 T02890200 10328 20289 55002
  • 082254Z 16005KT 10SM FEW045 SCT180 BKN250 30/18 A2993 RMK AO2 SLP136 T03000178

TAF KPHL
Valid from the 09 at 00:00 until the 10 at 06:00 UTC


082320Z 0900/1006 18006KT P6SM SCT050
FM090600 VRB03KT P6SM BKN050
TEMPO 0908/0912 5SM BR SCT007
FM091300 14007KT P6SM SCT050
KZDC FIR / North America



MET'MAP, your aeronautical weather chart ! - Copyright ORBIFLY December 2007 - Disclaimer

ORBIFLY MET'MAP TEAM :

Programming & Development : Alexandra Zaïnal
Concept & original design : Baudouin d'Aumeries
Assistance for programming : Marc-Olivier Méhu
Technical & hardware support : Manuel Goepfert

Contact : metmap@orbifly.com




SOURCES & CREDITS :

   NOAA       Earth
Advisory